METAR Reports

Area Airport Weather Conditions

KBDL - Windsor Locks, Connecticut, USA
Distance from station: NE 45mi, 72km
Updated: 1:51PM EDT, April 12, 2024
Overcast
Overcast
 Wind from S
Wind: S 17 mph , 28 km/h, Gust: 29 mph , 46 km/h
Temperature: 61°F , 16°C
Dew Point: 57°F , 14°C
Humidity: 88%
Barometer: 29.31 inHg , 992.5 hPa
Clouds: Overcast
Visibility: 7 miles , 11 km
Cloud details: Overcast 800 ft
2024/04/12 17:51 KBDL 121751Z 17015G25KT 7SM OVC008 16/14 A2931 RMK AO2 PK WND 18027/1737 DZE15 SLP925 P0000 60003 T01610139 10178 20161 56030
KDXR - Danbury, Connecticut, USA
Distance from station: SSW 15mi, 24km
Updated: 2:14PM EDT, April 12, 2024
Heavy rain, Mist, Overcast
Heavy rain, Mist, Overcast
 Wind from S
Wind: S 12 mph , 19 km/h, Gust: 22 mph , 35 km/h
Temperature: 57°F , 14°C
Dew Point: 54°F , 12°C
Humidity: 88%
Barometer: 29.31 inHg , 992.5 hPa
Summary: Heavy rain, Mist
Clouds: Overcast
Visibility: 3 miles , 5 km
Cloud details: Few Clouds 300 ft
Mostly cloudy 1000 ft
Overcast 1600 ft
2024/04/12 18:14 KDXR 121814Z 19010G19KT 3SM +RA BR FEW003 BKN010 OVC016 14/12 A2931 RMK AO2 P0006 T01440122
 
KOXC - Oxford/Waterbury, Connecticut, USA
Distance from station: ESE 16mi, 26km
Updated: 1:51PM EDT, April 12, 2024
Light rain, Mist, Overcast
Light rain, Mist, Overcast
 Wind from SSE
Wind: SSE 13 mph , 20 km/h, Gust: 22 mph , 35 km/h
Temperature: 55°F , 13°C
Dew Point: 55°F , 13°C
Humidity: 100%
Barometer: 29.32 inHg , 992.9 hPa
Summary: Light rain, Mist
Clouds: Overcast
Visibility: 1 mile , 2 km
Cloud details: Overcast 200 ft
2024/04/12 17:51 KOXC 121751Z 16011G19KT 1SM -RA BR OVC002 13/13 A2932 RMK AO2 RAB39 SLP938 P0002 60004 T01280128 10144 20128 56026
KPOU - Poughkeepsie, New York, USA
Distance from station: W 25mi, 40km
Updated: 2:04PM EDT, April 12, 2024
Rain, Overcast
Rain, Overcast
 Wind from SW
Wind: SW 10 mph , 17 km/h, Gust: 23 mph , 37 km/h
Temperature: 57°F , 14°C
Dew Point: 52°F , 11°C
Humidity: 82%
Barometer: 29.27 inHg , 991.2 hPa
Summary: Rain
Clouds: Overcast
Visibility: 3 miles , 5 km
Cloud details: Partly cloudy 1700 ft
Mostly cloudy 3000 ft
Overcast 7000 ft
2024/04/12 18:04 KPOU 121804Z 23009G20KT 3SM RA SCT017 BKN030 OVC070 14/11 A2927 RMK AO2 P0004 T01390111
 
KMMK - Meriden, Connecticut, USA
Distance from station: E 30mi, 48km
Updated: 2:02PM EDT, April 12, 2024
Overcast
Overcast
 Wind from S
Wind: S 18 mph , 30 km/h, Gust: 30 mph , 48 km/h
Temperature: 57°F , 14°C
Dew Point: 54°F , 12°C
Humidity: 88%
Barometer: 29.33 inHg , 993.2 hPa
Clouds: Overcast
Visibility: 9 miles , 14 km
Cloud details: Overcast 1000 ft
2024/04/12 18:02 KMMK 121802Z AUTO 17016G26KT 9SM OVC010 14/12 A2933 RMK AO2 PK WND 17026/1754 T01440117
KBDR - Bridgeport, Connecticut, USA
Distance from station: SSE 32mi, 51km
Updated: 2:13PM EDT, April 12, 2024
Light rain, Mist, Overcast
Light rain, Mist, Overcast
 Wind from S
Wind: S 18 mph , 30 km/h, Gust: 28 mph , 44 km/h
Temperature: 55°F , 13°C
Dew Point: 52°F , 11°C
Humidity: 88%
Barometer: 29.32 inHg , 992.9 hPa
Summary: Light rain, Mist
Clouds: Overcast
Visibility: 2 miles , 3 km
Cloud details: Mostly cloudy 1000 ft
Overcast 1400 ft
2024/04/12 18:13 KBDR 121813Z 19016G24KT 2SM -RA BR BKN010 OVC014 13/11 A2932 RMK AO2 RAB08 CIG 008V011 P0000 T01280106
 
KHVN - New Haven/Tweed, Connecticut, USA
Distance from station: SE 35mi, 57km
Updated: 1:53PM EDT, April 12, 2024
Mist, Overcast
Mist, Overcast
 Wind from SSE
Wind: SSE 12 mph , 19 km/h
Temperature: 57°F , 14°C
Dew Point: 54°F , 12°C
Humidity: 88%
Barometer: 29.34 inHg , 993.6 hPa
Summary: Mist
Clouds: Overcast
Visibility: 4 miles , 6 km
Cloud details: Overcast 1200 ft
2024/04/12 17:53 KHVN 121753Z 15010KT 4SM BR OVC012 14/12 A2934 RMK AO2 SLP934 T01390117 10150 20133 58012
KSWF - Newburgh/Stewart, New York, USA
Distance from station: W 35mi, 57km
Updated: 1:45PM EDT, April 12, 2024
Rain, Mist, Overcast
Rain, Mist, Overcast
 Wind from W
Wind: W 14 mph , 22 km/h, Gust: 23 mph , 37 km/h
Temperature: 55°F , 13°C
Dew Point: 54°F , 12°C
Humidity: 94%
Barometer: 29.29 inHg , 991.9 hPa
Summary: Rain, Mist
Clouds: Overcast
Visibility: 4 miles , 6 km
Cloud details: Overcast 500 ft
2024/04/12 17:45 KSWF 121745Z 26012G20KT 4SM RA BR OVC005 13/12 A2929
 
KHPN - White Plains, New York, USA
Distance from station: SSW 38mi, 62km
Updated: 1:56PM EDT, April 12, 2024
Light rain, Mist, Overcast
Light rain, Mist, Overcast
 Wind from W
Wind: W 12 mph , 19 km/h, Gust: 22 mph , 35 km/h
Temperature: 55°F , 13°C
Dew Point: 52°F , 11°C
Humidity: 88%
Barometer: 29.32 inHg , 992.9 hPa
Summary: Light rain, Mist
Clouds: Overcast
Visibility: 1 1/2 miles , 2.4 km
Cloud details: Partly cloudy 400 ft
Overcast 1000 ft
2024/04/12 17:56 KHPN 121756Z 27010G19KT 1 1/2SM -RA BR SCT004 OVC010 13/11 A2932 RMK AO2 RAB15 SLP929 P0018 60018 T01280111 10144 20122 55010
KHFD - Hartford/Brainar, Connecticut, USA
Distance from station: ENE 41mi, 65km
Updated: 1:53PM EDT, April 12, 2024
Overcast
Overcast
 Wind from S
Wind: S 15 mph , 24 km/h, Gust: 23 mph , 37 km/h
Temperature: 61°F , 16°C
Dew Point: 55°F , 13°C
Humidity: 83%
Barometer: 29.31 inHg , 992.5 hPa
Clouds: Overcast
Visibility: 8 miles , 13 km
Cloud details: Overcast 1000 ft
2024/04/12 17:53 KHFD 121753Z 17013G20KT 8SM OVC010 16/13 A2931 RMK AO2 SLP924 60001 T01610133 10167 20150 56019